sensor_id;sensor_type;location;lat;lon;timestamp;P1;durP1;ratioP1;P2;durP2;ratioP2
77136;SDS011;66102;48.542;-2.970;2023-06-22T00:00:51;9.90;;;5.10;;
77136;SDS011;66102;48.542;-2.970;2023-06-22T00:03:18;9.35;;;5.03;;
77136;SDS011;66102;48.542;-2.970;2023-06-22T00:05:45;9.55;;;4.88;;
77136;SDS011;66102;48.542;-2.970;2023-06-22T00:08:11;10.00;;;4.97;;
77136;SDS011;66102;48.542;-2.970;2023-06-22T00:10:37;11.35;;;5.57;;
77136;SDS011;66102;48.542;-2.970;2023-06-22T00:13:04;10.25;;;5.00;;
77136;SDS011;66102;48.542;-2.970;2023-06-22T00:15:30;8.88;;;4.75;;
77136;SDS011;66102;48.542;-2.970;2023-06-22T00:17:56;9.30;;;4.70;;
77136;SDS011;66102;48.542;-2.970;2023-06-22T00:20:22;10.63;;;5.40;;
77136;SDS011;66102;48.542;-2.970;2023-06-22T00:22:53;9.35;;;4.95;;
77136;SDS011;66102;48.542;-2.970;2023-06-22T00:25:19;9.68;;;4.78;;
77136;SDS011;66102;48.542;-2.970;2023-06-22T00:27:45;11.43;;;5.25;;
77136;SDS011;66102;48.542;-2.970;2023-06-22T00:30:11;9.63;;;5.35;;
77136;SDS011;66102;48.542;-2.970;2023-06-22T00:32:37;8.13;;;4.50;;
77136;SDS011;66102;48.542;-2.970;2023-06-22T00:35:03;10.25;;;5.15;;
77136;SDS011;66102;48.542;-2.970;2023-06-22T00:37:29;12.57;;;5.20;;
77136;SDS011;66102;48.542;-2.970;2023-06-22T00:39:55;9.10;;;5.10;;
77136;SDS011;66102;48.542;-2.970;2023-06-22T00:42:22;11.52;;;5.32;;
77136;SDS011;66102;48.542;-2.970;2023-06-22T00:44:48;8.98;;;4.70;;
77136;SDS011;66102;48.542;-2.970;2023-06-22T00:47:15;10.50;;;5.25;;
77136;SDS011;66102;48.542;-2.970;2023-06-22T00:49:42;14.48;;;5.55;;
77136;SDS011;66102;48.542;-2.970;2023-06-22T00:52:08;11.98;;;5.30;;
77136;SDS011;66102;48.542;-2.970;2023-06-22T00:54:41;10.40;;;5.15;;
77136;SDS011;66102;48.542;-2.970;2023-06-22T00:57:11;15.32;;;6.10;;
77136;SDS011;66102;48.542;-2.970;2023-06-22T00:59:40;11.25;;;5.75;;
77136;SDS011;66102;48.542;-2.970;2023-06-22T01:02:07;12.07;;;5.55;;
77136;SDS011;66102;48.542;-2.970;2023-06-22T01:04:34;13.15;;;6.20;;
77136;SDS011;66102;48.542;-2.970;2023-06-22T01:07:03;9.95;;;5.65;;
77136;SDS011;66102;48.542;-2.970;2023-06-22T01:09:32;12.18;;;5.38;;
77136;SDS011;66102;48.542;-2.970;2023-06-22T01:12:00;11.77;;;5.65;;
77136;SDS011;66102;48.542;-2.970;2023-06-22T01:16:53;12.50;;;6.00;;
77136;SDS011;66102;48.542;-2.970;2023-06-22T01:19:38;11.93;;;6.00;;
77136;SDS011;66102;48.542;-2.970;2023-06-22T01:22:06;11.93;;;5.47;;
77136;SDS011;66102;48.542;-2.970;2023-06-22T01:27:17;11.18;;;5.35;;
77136;SDS011;66102;48.542;-2.970;2023-06-22T01:29:52;12.70;;;5.55;;
77136;SDS011;66102;48.542;-2.970;2023-06-22T01:32:25;11.50;;;6.03;;
77136;SDS011;66102;48.542;-2.970;2023-06-22T01:34:52;12.88;;;6.22;;
77136;SDS011;66102;48.542;-2.970;2023-06-22T01:37:18;10.18;;;5.68;;
77136;SDS011;66102;48.542;-2.970;2023-06-22T01:39:44;11.02;;;6.10;;
77136;SDS011;66102;48.542;-2.970;2023-06-22T01:42:10;13.57;;;6.55;;
77136;SDS011;66102;48.542;-2.970;2023-06-22T01:44:37;16.55;;;6.53;;
77136;SDS011;66102;48.542;-2.970;2023-06-22T01:47:03;14.20;;;6.55;;
77136;SDS011;66102;48.542;-2.970;2023-06-22T01:49:30;13.55;;;6.35;;
77136;SDS011;66102;48.542;-2.970;2023-06-22T01:51:56;15.88;;;7.82;;
77136;SDS011;66102;48.542;-2.970;2023-06-22T01:54:22;16.25;;;8.30;;
77136;SDS011;66102;48.542;-2.970;2023-06-22T01:56:49;16.48;;;7.90;;
77136;SDS011;66102;48.542;-2.970;2023-06-22T01:59:21;30.52;;;9.98;;
77136;SDS011;66102;48.542;-2.970;2023-06-22T02:01:54;23.17;;;8.88;;
77136;SDS011;66102;48.542;-2.970;2023-06-22T02:04:24;22.70;;;9.80;;
77136;SDS011;66102;48.542;-2.970;2023-06-22T02:06:54;26.73;;;10.55;;
77136;SDS011;66102;48.542;-2.970;2023-06-22T02:09:21;27.98;;;12.15;;
77136;SDS011;66102;48.542;-2.970;2023-06-22T02:11:48;24.70;;;10.98;;
77136;SDS011;66102;48.542;-2.970;2023-06-22T02:14:18;28.27;;;11.68;;
77136;SDS011;66102;48.542;-2.970;2023-06-22T02:16:45;24.67;;;11.02;;
77136;SDS011;66102;48.542;-2.970;2023-06-22T02:19:11;29.25;;;12.25;;
77136;SDS011;66102;48.542;-2.970;2023-06-22T02:21:37;21.27;;;10.95;;
77136;SDS011;66102;48.542;-2.970;2023-06-22T02:24:04;24.05;;;10.73;;
77136;SDS011;66102;48.542;-2.970;2023-06-22T02:26:30;28.40;;;11.60;;
77136;SDS011;66102;48.542;-2.970;2023-06-22T02:28:56;26.60;;;11.35;;
77136;SDS011;66102;48.542;-2.970;2023-06-22T02:31:22;30.73;;;12.23;;
77136;SDS011;66102;48.542;-2.970;2023-06-22T02:33:55;27.83;;;11.60;;
77136;SDS011;66102;48.542;-2.970;2023-06-22T02:36:22;24.75;;;10.82;;
77136;SDS011;66102;48.542;-2.970;2023-06-22T02:38:48;30.15;;;12.15;;
77136;SDS011;66102;48.542;-2.970;2023-06-22T02:41:15;25.83;;;10.25;;
77136;SDS011;66102;48.542;-2.970;2023-06-22T02:43:45;26.80;;;9.85;;
77136;SDS011;66102;48.542;-2.970;2023-06-22T02:46:11;25.55;;;10.93;;
77136;SDS011;66102;48.542;-2.970;2023-06-22T02:48:38;25.38;;;11.57;;
77136;SDS011;66102;48.542;-2.970;2023-06-22T02:51:04;24.92;;;11.10;;
77136;SDS011;66102;48.542;-2.970;2023-06-22T02:53:30;26.95;;;11.80;;
77136;SDS011;66102;48.542;-2.970;2023-06-22T02:55:57;27.38;;;10.70;;
77136;SDS011;66102;48.542;-2.970;2023-06-22T02:58:23;28.77;;;12.18;;
77136;SDS011;66102;48.542;-2.970;2023-06-22T03:00:49;26.92;;;11.35;;
77136;SDS011;66102;48.542;-2.970;2023-06-22T03:03:19;26.10;;;11.32;;
77136;SDS011;66102;48.542;-2.970;2023-06-22T03:05:45;26.27;;;11.48;;
77136;SDS011;66102;48.542;-2.970;2023-06-22T03:08:11;27.02;;;11.50;;
77136;SDS011;66102;48.542;-2.970;2023-06-22T03:10:37;24.35;;;11.02;;
77136;SDS011;66102;48.542;-2.970;2023-06-22T03:13:03;23.70;;;10.40;;
77136;SDS011;66102;48.542;-2.970;2023-06-22T03:15:29;27.88;;;10.75;;
77136;SDS011;66102;48.542;-2.970;2023-06-22T03:17:56;26.58;;;9.60;;
77136;SDS011;66102;48.542;-2.970;2023-06-22T03:20:22;22.23;;;9.63;;
77136;SDS011;66102;48.542;-2.970;2023-06-22T03:22:48;30.13;;;11.02;;
77136;SDS011;66102;48.542;-2.970;2023-06-22T03:25:14;23.58;;;9.10;;
77136;SDS011;66102;48.542;-2.970;2023-06-22T03:27:41;30.05;;;9.85;;
77136;SDS011;66102;48.542;-2.970;2023-06-22T03:30:08;23.02;;;8.75;;
77136;SDS011;66102;48.542;-2.970;2023-06-22T03:32:34;26.42;;;10.52;;
77136;SDS011;66102;48.542;-2.970;2023-06-22T03:35:00;24.25;;;9.35;;
77136;SDS011;66102;48.542;-2.970;2023-06-22T03:37:27;27.33;;;10.48;;
77136;SDS011;66102;48.542;-2.970;2023-06-22T03:39:54;19.23;;;8.15;;
77136;SDS011;66102;48.542;-2.970;2023-06-22T03:42:20;22.92;;;9.23;;
77136;SDS011;66102;48.542;-2.970;2023-06-22T03:44:46;21.88;;;9.45;;
77136;SDS011;66102;48.542;-2.970;2023-06-22T03:47:12;22.10;;;8.90;;
77136;SDS011;66102;48.542;-2.970;2023-06-22T03:49:38;28.90;;;9.55;;
77136;SDS011;66102;48.542;-2.970;2023-06-22T03:52:05;20.83;;;8.80;;
77136;SDS011;66102;48.542;-2.970;2023-06-22T03:54:31;19.08;;;8.38;;
77136;SDS011;66102;48.542;-2.970;2023-06-22T03:56:57;20.00;;;8.27;;
77136;SDS011;66102;48.542;-2.970;2023-06-22T03:59:24;24.48;;;9.30;;
77136;SDS011;66102;48.542;-2.970;2023-06-22T04:01:50;20.73;;;7.75;;
77136;SDS011;66102;48.542;-2.970;2023-06-22T04:04:19;21.95;;;10.00;;
77136;SDS011;66102;48.542;-2.970;2023-06-22T04:06:45;21.75;;;9.32;;
77136;SDS011;66102;48.542;-2.970;2023-06-22T04:09:11;21.00;;;8.70;;
77136;SDS011;66102;48.542;-2.970;2023-06-22T04:11:37;22.95;;;9.35;;
77136;SDS011;66102;48.542;-2.970;2023-06-22T04:14:03;22.35;;;9.88;;
77136;SDS011;66102;48.542;-2.970;2023-06-22T04:16:29;21.67;;;9.85;;
77136;SDS011;66102;48.542;-2.970;2023-06-22T04:18:55;20.35;;;9.43;;
77136;SDS011;66102;48.542;-2.970;2023-06-22T04:21:21;19.95;;;9.45;;
77136;SDS011;66102;48.542;-2.970;2023-06-22T04:23:47;20.33;;;9.25;;
77136;SDS011;66102;48.542;-2.970;2023-06-22T04:26:14;21.15;;;9.23;;
77136;SDS011;66102;48.542;-2.970;2023-06-22T04:28:40;21.70;;;9.27;;
77136;SDS011;66102;48.542;-2.970;2023-06-22T04:31:06;21.23;;;9.20;;
77136;SDS011;66102;48.542;-2.970;2023-06-22T04:33:32;24.52;;;10.82;;
77136;SDS011;66102;48.542;-2.970;2023-06-22T04:35:59;23.23;;;10.02;;
77136;SDS011;66102;48.542;-2.970;2023-06-22T04:38:29;21.80;;;9.77;;
77136;SDS011;66102;48.542;-2.970;2023-06-22T04:40:58;23.38;;;9.93;;
77136;SDS011;66102;48.542;-2.970;2023-06-22T04:43:26;18.65;;;9.23;;
77136;SDS011;66102;48.542;-2.970;2023-06-22T04:45:58;20.33;;;9.57;;
77136;SDS011;66102;48.542;-2.970;2023-06-22T04:48:29;22.35;;;9.52;;
77136;SDS011;66102;48.542;-2.970;2023-06-22T04:51:01;21.17;;;9.32;;
77136;SDS011;66102;48.542;-2.970;2023-06-22T04:53:30;22.55;;;9.93;;
77136;SDS011;66102;48.542;-2.970;2023-06-22T04:55:56;25.50;;;10.25;;
77136;SDS011;66102;48.542;-2.970;2023-06-22T04:58:22;21.88;;;10.30;;
77136;SDS011;66102;48.542;-2.970;2023-06-22T05:00:48;21.90;;;9.93;;
77136;SDS011;66102;48.542;-2.970;2023-06-22T05:03:17;22.67;;;11.15;;
77136;SDS011;66102;48.542;-2.970;2023-06-22T05:05:43;22.80;;;9.95;;
77136;SDS011;66102;48.542;-2.970;2023-06-22T05:08:09;26.25;;;12.32;;
77136;SDS011;66102;48.542;-2.970;2023-06-22T05:10:35;22.25;;;11.43;;
77136;SDS011;66102;48.542;-2.970;2023-06-22T05:13:01;20.42;;;9.95;;
77136;SDS011;66102;48.542;-2.970;2023-06-22T05:15:27;21.02;;;10.23;;
77136;SDS011;66102;48.542;-2.970;2023-06-22T05:17:55;24.42;;;11.15;;
77136;SDS011;66102;48.542;-2.970;2023-06-22T05:20:23;23.08;;;10.77;;
77136;SDS011;66102;48.542;-2.970;2023-06-22T05:22:49;21.63;;;10.82;;
77136;SDS011;66102;48.542;-2.970;2023-06-22T05:25:15;20.85;;;9.90;;
77136;SDS011;66102;48.542;-2.970;2023-06-22T05:27:41;24.88;;;11.30;;
77136;SDS011;66102;48.542;-2.970;2023-06-22T05:30:09;21.30;;;10.57;;
77136;SDS011;66102;48.542;-2.970;2023-06-22T05:32:36;22.63;;;10.65;;
77136;SDS011;66102;48.542;-2.970;2023-06-22T05:35:03;20.80;;;9.13;;
77136;SDS011;66102;48.542;-2.970;2023-06-22T05:37:29;20.90;;;9.77;;
77136;SDS011;66102;48.542;-2.970;2023-06-22T05:39:55;22.10;;;9.65;;
77136;SDS011;66102;48.542;-2.970;2023-06-22T05:42:22;24.67;;;10.05;;
77136;SDS011;66102;48.542;-2.970;2023-06-22T05:44:50;24.40;;;10.23;;
77136;SDS011;66102;48.542;-2.970;2023-06-22T05:47:16;23.30;;;10.50;;
77136;SDS011;66102;48.542;-2.970;2023-06-22T05:49:42;24.88;;;11.48;;
77136;SDS011;66102;48.542;-2.970;2023-06-22T05:52:08;22.13;;;10.95;;
77136;SDS011;66102;48.542;-2.970;2023-06-22T05:54:34;18.05;;;9.30;;
77136;SDS011;66102;48.542;-2.970;2023-06-22T05:57:00;19.42;;;8.80;;
77136;SDS011;66102;48.542;-2.970;2023-06-22T05:59:26;18.35;;;8.90;;
77136;SDS011;66102;48.542;-2.970;2023-06-22T06:01:53;18.60;;;8.93;;
77136;SDS011;66102;48.542;-2.970;2023-06-22T06:04:19;20.42;;;8.50;;
77136;SDS011;66102;48.542;-2.970;2023-06-22T06:06:45;18.40;;;9.18;;
77136;SDS011;66102;48.542;-2.970;2023-06-22T06:09:13;19.52;;;9.68;;
77136;SDS011;66102;48.542;-2.970;2023-06-22T06:11:40;22.08;;;9.52;;
77136;SDS011;66102;48.542;-2.970;2023-06-22T06:14:06;18.20;;;8.80;;
77136;SDS011;66102;48.542;-2.970;2023-06-22T06:16:32;15.43;;;8.00;;
77136;SDS011;66102;48.542;-2.970;2023-06-22T06:18:58;16.45;;;8.13;;
77136;SDS011;66102;48.542;-2.970;2023-06-22T06:21:24;15.25;;;7.43;;
77136;SDS011;66102;48.542;-2.970;2023-06-22T06:23:50;18.52;;;8.80;;
77136;SDS011;66102;48.542;-2.970;2023-06-22T06:26:16;20.00;;;9.02;;
77136;SDS011;66102;48.542;-2.970;2023-06-22T06:28:43;18.25;;;9.15;;
77136;SDS011;66102;48.542;-2.970;2023-06-22T06:31:09;18.33;;;7.72;;
77136;SDS011;66102;48.542;-2.970;2023-06-22T06:33:37;15.15;;;6.38;;
77136;SDS011;66102;48.542;-2.970;2023-06-22T06:36:03;11.73;;;5.43;;
77136;SDS011;66102;48.542;-2.970;2023-06-22T06:38:29;12.95;;;7.03;;
77136;SDS011;66102;48.542;-2.970;2023-06-22T06:40:56;12.70;;;6.63;;
77136;SDS011;66102;48.542;-2.970;2023-06-22T06:43:22;13.15;;;5.72;;
77136;SDS011;66102;48.542;-2.970;2023-06-22T06:45:49;10.23;;;5.35;;
77136;SDS011;66102;48.542;-2.970;2023-06-22T06:48:15;10.50;;;5.60;;
77136;SDS011;66102;48.542;-2.970;2023-06-22T06:50:42;10.35;;;5.28;;
77136;SDS011;66102;48.542;-2.970;2023-06-22T06:53:09;9.57;;;5.43;;
77136;SDS011;66102;48.542;-2.970;2023-06-22T06:55:35;9.70;;;5.18;;
77136;SDS011;66102;48.542;-2.970;2023-06-22T06:58:01;10.23;;;5.63;;
77136;SDS011;66102;48.542;-2.970;2023-06-22T07:00:32;9.50;;;4.72;;
77136;SDS011;66102;48.542;-2.970;2023-06-22T07:02:58;9.43;;;4.80;;
77136;SDS011;66102;48.542;-2.970;2023-06-22T07:05:24;10.27;;;5.10;;
77136;SDS011;66102;48.542;-2.970;2023-06-22T07:07:50;8.23;;;4.32;;
77136;SDS011;66102;48.542;-2.970;2023-06-22T07:10:17;8.48;;;4.72;;
77136;SDS011;66102;48.542;-2.970;2023-06-22T07:12:43;9.68;;;5.60;;
77136;SDS011;66102;48.542;-2.970;2023-06-22T07:15:09;8.98;;;5.18;;
77136;SDS011;66102;48.542;-2.970;2023-06-22T07:17:37;10.70;;;4.95;;
77136;SDS011;66102;48.542;-2.970;2023-06-22T07:20:07;8.00;;;4.25;;
77136;SDS011;66102;48.542;-2.970;2023-06-22T07:22:40;7.32;;;4.07;;
77136;SDS011;66102;48.542;-2.970;2023-06-22T07:25:06;9.65;;;4.82;;
77136;SDS011;66102;48.542;-2.970;2023-06-22T07:27:39;12.75;;;6.30;;
77136;SDS011;66102;48.542;-2.970;2023-06-22T07:30:08;9.93;;;5.25;;
77136;SDS011;66102;48.542;-2.970;2023-06-22T07:32:35;10.10;;;5.20;;
77136;SDS011;66102;48.542;-2.970;2023-06-22T07:35:01;7.07;;;4.20;;
77136;SDS011;66102;48.542;-2.970;2023-06-22T07:37:28;7.20;;;3.55;;
77136;SDS011;66102;48.542;-2.970;2023-06-22T07:39:54;6.65;;;3.92;;
77136;SDS011;66102;48.542;-2.970;2023-06-22T07:42:24;8.98;;;4.80;;
77136;SDS011;66102;48.542;-2.970;2023-06-22T07:44:50;8.48;;;4.95;;
77136;SDS011;66102;48.542;-2.970;2023-06-22T07:47:16;8.05;;;4.03;;
77136;SDS011;66102;48.542;-2.970;2023-06-22T07:49:50;7.70;;;3.78;;
77136;SDS011;66102;48.542;-2.970;2023-06-22T07:52:16;7.10;;;3.42;;
77136;SDS011;66102;48.542;-2.970;2023-06-22T07:54:42;7.90;;;3.80;;
77136;SDS011;66102;48.542;-2.970;2023-06-22T07:57:09;7.88;;;4.28;;
77136;SDS011;66102;48.542;-2.970;2023-06-22T07:59:35;7.55;;;3.65;;
77136;SDS011;66102;48.542;-2.970;2023-06-22T08:02:01;9.07;;;3.80;;
77136;SDS011;66102;48.542;-2.970;2023-06-22T08:04:28;8.75;;;4.40;;
77136;SDS011;66102;48.542;-2.970;2023-06-22T08:06:56;6.90;;;3.75;;
77136;SDS011;66102;48.542;-2.970;2023-06-22T08:09:22;6.47;;;3.22;;
77136;SDS011;66102;48.542;-2.970;2023-06-22T08:11:48;7.32;;;3.55;;
77136;SDS011;66102;48.542;-2.970;2023-06-22T08:14:14;5.88;;;3.20;;
77136;SDS011;66102;48.542;-2.970;2023-06-22T08:16:41;8.18;;;3.63;;
77136;SDS011;66102;48.542;-2.970;2023-06-22T08:19:07;7.20;;;3.65;;
77136;SDS011;66102;48.542;-2.970;2023-06-22T08:21:33;7.28;;;3.85;;
77136;SDS011;66102;48.542;-2.970;2023-06-22T08:23:59;9.18;;;3.80;;
77136;SDS011;66102;48.542;-2.970;2023-06-22T08:26:27;7.10;;;3.53;;
77136;SDS011;66102;48.542;-2.970;2023-06-22T08:28:53;7.18;;;3.55;;
77136;SDS011;66102;48.542;-2.970;2023-06-22T08:31:19;6.05;;;3.15;;
77136;SDS011;66102;48.542;-2.970;2023-06-22T08:33:45;6.20;;;3.30;;
77136;SDS011;66102;48.542;-2.970;2023-06-22T08:36:11;6.97;;;3.50;;
77136;SDS011;66102;48.542;-2.970;2023-06-22T08:38:38;4.80;;;2.38;;
77136;SDS011;66102;48.542;-2.970;2023-06-22T08:41:04;6.55;;;3.35;;
77136;SDS011;66102;48.542;-2.970;2023-06-22T08:43:30;8.10;;;3.15;;
77136;SDS011;66102;48.542;-2.970;2023-06-22T08:45:57;9.82;;;3.85;;
77136;SDS011;66102;48.542;-2.970;2023-06-22T08:48:23;6.93;;;3.45;;
77136;SDS011;66102;48.542;-2.970;2023-06-22T08:50:49;6.60;;;3.50;;
77136;SDS011;66102;48.542;-2.970;2023-06-22T08:53:15;6.38;;;3.47;;
77136;SDS011;66102;48.542;-2.970;2023-06-22T08:55:41;7.55;;;3.55;;
77136;SDS011;66102;48.542;-2.970;2023-06-22T08:58:07;6.10;;;3.17;;
77136;SDS011;66102;48.542;-2.970;2023-06-22T09:00:33;7.35;;;3.30;;
77136;SDS011;66102;48.542;-2.970;2023-06-22T09:03:00;5.80;;;2.80;;
77136;SDS011;66102;48.542;-2.970;2023-06-22T09:05:26;7.00;;;3.13;;
77136;SDS011;66102;48.542;-2.970;2023-06-22T09:07:52;9.98;;;4.22;;
77136;SDS011;66102;48.542;-2.970;2023-06-22T09:10:20;6.88;;;3.30;;
77136;SDS011;66102;48.542;-2.970;2023-06-22T09:12:46;6.75;;;3.25;;
77136;SDS011;66102;48.542;-2.970;2023-06-22T09:15:12;7.03;;;3.40;;
77136;SDS011;66102;48.542;-2.970;2023-06-22T09:17:38;6.75;;;3.30;;
77136;SDS011;66102;48.542;-2.970;2023-06-22T09:20:04;5.72;;;2.80;;
77136;SDS011;66102;48.542;-2.970;2023-06-22T09:22:32;7.20;;;2.97;;
77136;SDS011;66102;48.542;-2.970;2023-06-22T09:24:58;6.93;;;3.75;;
77136;SDS011;66102;48.542;-2.970;2023-06-22T09:27:25;7.75;;;3.33;;
77136;SDS011;66102;48.542;-2.970;2023-06-22T09:29:51;6.88;;;3.45;;
77136;SDS011;66102;48.542;-2.970;2023-06-22T09:32:17;8.93;;;3.38;;
77136;SDS011;66102;48.542;-2.970;2023-06-22T09:34:43;7.80;;;3.20;;
77136;SDS011;66102;48.542;-2.970;2023-06-22T09:37:09;6.50;;;3.10;;
77136;SDS011;66102;48.542;-2.970;2023-06-22T09:39:35;6.22;;;2.90;;
77136;SDS011;66102;48.542;-2.970;2023-06-22T09:42:02;7.78;;;3.50;;
77136;SDS011;66102;48.542;-2.970;2023-06-22T09:44:28;6.05;;;3.03;;
77136;SDS011;66102;48.542;-2.970;2023-06-22T09:46:55;5.60;;;3.00;;
77136;SDS011;66102;48.542;-2.970;2023-06-22T09:49:21;6.60;;;2.78;;
77136;SDS011;66102;48.542;-2.970;2023-06-22T09:51:47;6.28;;;2.90;;
77136;SDS011;66102;48.542;-2.970;2023-06-22T09:54:14;6.35;;;2.90;;
77136;SDS011;66102;48.542;-2.970;2023-06-22T09:56:40;6.20;;;2.67;;
77136;SDS011;66102;48.542;-2.970;2023-06-22T09:59:06;6.43;;;3.13;;
77136;SDS011;66102;48.542;-2.970;2023-06-22T10:01:32;6.30;;;2.70;;
77136;SDS011;66102;48.542;-2.970;2023-06-22T10:03:58;5.07;;;2.45;;
77136;SDS011;66102;48.542;-2.970;2023-06-22T10:06:24;6.25;;;2.53;;
77136;SDS011;66102;48.542;-2.970;2023-06-22T10:08:51;6.70;;;2.65;;
77136;SDS011;66102;48.542;-2.970;2023-06-22T10:11:17;6.53;;;3.08;;
77136;SDS011;66102;48.542;-2.970;2023-06-22T10:13:43;6.55;;;2.47;;
77136;SDS011;66102;48.542;-2.970;2023-06-22T10:16:09;5.95;;;2.00;;
77136;SDS011;66102;48.542;-2.970;2023-06-22T10:18:36;5.38;;;2.00;;
77136;SDS011;66102;48.542;-2.970;2023-06-22T10:21:02;5.97;;;2.40;;
77136;SDS011;66102;48.542;-2.970;2023-06-22T10:23:28;5.75;;;2.20;;
77136;SDS011;66102;48.542;-2.970;2023-06-22T10:25:54;5.47;;;2.42;;
77136;SDS011;66102;48.542;-2.970;2023-06-22T10:28:23;6.28;;;2.83;;
77136;SDS011;66102;48.542;-2.970;2023-06-22T10:30:49;5.38;;;2.53;;
77136;SDS011;66102;48.542;-2.970;2023-06-22T10:33:15;9.20;;;2.60;;
77136;SDS011;66102;48.542;-2.970;2023-06-22T10:35:41;5.85;;;2.72;;
77136;SDS011;66102;48.542;-2.970;2023-06-22T10:38:07;6.20;;;2.40;;
77136;SDS011;66102;48.542;-2.970;2023-06-22T10:40:33;6.57;;;2.35;;
77136;SDS011;66102;48.542;-2.970;2023-06-22T10:42:59;5.75;;;2.58;;
77136;SDS011;66102;48.542;-2.970;2023-06-22T10:45:25;4.85;;;2.22;;
77136;SDS011;66102;48.542;-2.970;2023-06-22T10:47:52;5.10;;;2.40;;
77136;SDS011;66102;48.542;-2.970;2023-06-22T10:50:18;5.85;;;2.58;;
77136;SDS011;66102;48.542;-2.970;2023-06-22T10:52:45;6.28;;;2.70;;
77136;SDS011;66102;48.542;-2.970;2023-06-22T10:55:11;5.95;;;2.63;;
77136;SDS011;66102;48.542;-2.970;2023-06-22T10:57:37;6.28;;;2.70;;
77136;SDS011;66102;48.542;-2.970;2023-06-22T11:02:34;7.03;;;2.50;;
77136;SDS011;66102;48.542;-2.970;2023-06-22T11:05:00;6.07;;;2.60;;
77136;SDS011;66102;48.542;-2.970;2023-06-22T11:07:26;5.22;;;2.47;;
77136;SDS011;66102;48.542;-2.970;2023-06-22T11:09:53;6.18;;;2.75;;
77136;SDS011;66102;48.542;-2.970;2023-06-22T11:12:19;9.27;;;2.80;;
77136;SDS011;66102;48.542;-2.970;2023-06-22T11:14:46;8.27;;;2.70;;
77136;SDS011;66102;48.542;-2.970;2023-06-22T11:17:12;6.30;;;2.70;;
77136;SDS011;66102;48.542;-2.970;2023-06-22T11:19:38;5.72;;;2.45;;
77136;SDS011;66102;48.542;-2.970;2023-06-22T11:22:04;5.65;;;2.45;;
77136;SDS011;66102;48.542;-2.970;2023-06-22T11:24:30;5.63;;;2.70;;
77136;SDS011;66102;48.542;-2.970;2023-06-22T11:26:56;6.10;;;2.60;;
77136;SDS011;66102;48.542;-2.970;2023-06-22T11:29:22;5.72;;;2.42;;
77136;SDS011;66102;48.542;-2.970;2023-06-22T11:31:48;5.93;;;2.60;;
77136;SDS011;66102;48.542;-2.970;2023-06-22T11:34:14;6.32;;;2.80;;
77136;SDS011;66102;48.542;-2.970;2023-06-22T11:36:40;6.55;;;2.80;;
77136;SDS011;66102;48.542;-2.970;2023-06-22T11:39:07;4.95;;;2.40;;
77136;SDS011;66102;48.542;-2.970;2023-06-22T11:41:34;5.85;;;2.45;;
77136;SDS011;66102;48.542;-2.970;2023-06-22T11:44:01;6.18;;;2.42;;
77136;SDS011;66102;48.542;-2.970;2023-06-22T11:46:29;5.03;;;2.25;;
77136;SDS011;66102;48.542;-2.970;2023-06-22T11:48:56;5.32;;;2.47;;
77136;SDS011;66102;48.542;-2.970;2023-06-22T11:51:22;6.00;;;2.35;;
77136;SDS011;66102;48.542;-2.970;2023-06-22T11:53:48;6.72;;;2.30;;
77136;SDS011;66102;48.542;-2.970;2023-06-22T11:56:15;4.70;;;2.35;;
77136;SDS011;66102;48.542;-2.970;2023-06-22T11:58:41;7.35;;;2.25;;
77136;SDS011;66102;48.542;-2.970;2023-06-22T12:01:07;5.82;;;2.55;;
77136;SDS011;66102;48.542;-2.970;2023-06-22T12:03:33;6.03;;;2.58;;
77136;SDS011;66102;48.542;-2.970;2023-06-22T12:05:59;5.50;;;2.70;;
77136;SDS011;66102;48.542;-2.970;2023-06-22T12:08:25;6.57;;;2.85;;
77136;SDS011;66102;48.542;-2.970;2023-06-22T12:10:51;7.38;;;3.08;;
77136;SDS011;66102;48.542;-2.970;2023-06-22T12:13:18;6.05;;;3.00;;
77136;SDS011;66102;48.542;-2.970;2023-06-22T12:15:45;7.13;;;3.38;;
77136;SDS011;66102;48.542;-2.970;2023-06-22T12:18:11;6.63;;;3.25;;
77136;SDS011;66102;48.542;-2.970;2023-06-22T12:20:39;6.40;;;2.90;;
77136;SDS011;66102;48.542;-2.970;2023-06-22T12:23:06;5.97;;;2.97;;
77136;SDS011;66102;48.542;-2.970;2023-06-22T12:25:32;6.30;;;2.80;;
77136;SDS011;66102;48.542;-2.970;2023-06-22T12:27:58;5.95;;;2.83;;
77136;SDS011;66102;48.542;-2.970;2023-06-22T12:30:24;5.75;;;2.45;;
77136;SDS011;66102;48.542;-2.970;2023-06-22T12:32:50;7.57;;;3.15;;
77136;SDS011;66102;48.542;-2.970;2023-06-22T12:35:16;5.68;;;3.17;;
77136;SDS011;66102;48.542;-2.970;2023-06-22T12:37:42;6.93;;;3.10;;
77136;SDS011;66102;48.542;-2.970;2023-06-22T12:40:09;9.70;;;3.47;;
77136;SDS011;66102;48.542;-2.970;2023-06-22T12:42:35;7.55;;;3.45;;
77136;SDS011;66102;48.542;-2.970;2023-06-22T12:45:01;7.40;;;3.65;;
77136;SDS011;66102;48.542;-2.970;2023-06-22T12:47:28;9.25;;;3.88;;
77136;SDS011;66102;48.542;-2.970;2023-06-22T12:49:54;5.43;;;2.95;;
77136;SDS011;66102;48.542;-2.970;2023-06-22T12:52:20;6.88;;;3.13;;
77136;SDS011;66102;48.542;-2.970;2023-06-22T12:54:46;8.00;;;3.38;;
77136;SDS011;66102;48.542;-2.970;2023-06-22T12:57:12;6.07;;;3.10;;
77136;SDS011;66102;48.542;-2.970;2023-06-22T12:59:38;6.55;;;2.85;;
77136;SDS011;66102;48.542;-2.970;2023-06-22T13:02:04;7.60;;;3.00;;
77136;SDS011;66102;48.542;-2.970;2023-06-22T13:04:31;7.72;;;3.20;;
77136;SDS011;66102;48.542;-2.970;2023-06-22T13:06:57;7.28;;;3.30;;
77136;SDS011;66102;48.542;-2.970;2023-06-22T13:09:23;7.05;;;3.13;;
77136;SDS011;66102;48.542;-2.970;2023-06-22T13:11:49;7.22;;;3.15;;
77136;SDS011;66102;48.542;-2.970;2023-06-22T13:14:15;6.90;;;3.10;;
77136;SDS011;66102;48.542;-2.970;2023-06-22T13:16:41;6.80;;;2.92;;
77136;SDS011;66102;48.542;-2.970;2023-06-22T13:19:07;6.53;;;2.72;;
77136;SDS011;66102;48.542;-2.970;2023-06-22T13:21:33;7.45;;;3.20;;
77136;SDS011;66102;48.542;-2.970;2023-06-22T13:23:59;7.75;;;2.95;;
77136;SDS011;66102;48.542;-2.970;2023-06-22T13:26:26;6.07;;;3.05;;
77136;SDS011;66102;48.542;-2.970;2023-06-22T13:28:53;5.95;;;2.97;;
77136;SDS011;66102;48.542;-2.970;2023-06-22T13:31:19;5.13;;;2.40;;
77136;SDS011;66102;48.542;-2.970;2023-06-22T13:33:46;5.72;;;2.78;;
77136;SDS011;66102;48.542;-2.970;2023-06-22T13:36:13;7.55;;;2.97;;
77136;SDS011;66102;48.542;-2.970;2023-06-22T13:38:40;6.03;;;2.60;;
77136;SDS011;66102;48.542;-2.970;2023-06-22T13:41:06;8.57;;;2.67;;
77136;SDS011;66102;48.542;-2.970;2023-06-22T13:43:32;8.50;;;3.03;;
77136;SDS011;66102;48.542;-2.970;2023-06-22T13:45:58;6.80;;;3.03;;
77136;SDS011;66102;48.542;-2.970;2023-06-22T13:48:24;7.30;;;2.95;;
77136;SDS011;66102;48.542;-2.970;2023-06-22T13:50:51;5.47;;;2.53;;
77136;SDS011;66102;48.542;-2.970;2023-06-22T13:53:17;7.03;;;3.22;;
77136;SDS011;66102;48.542;-2.970;2023-06-22T13:55:43;6.18;;;2.60;;
77136;SDS011;66102;48.542;-2.970;2023-06-22T13:58:09;5.45;;;2.63;;
77136;SDS011;66102;48.542;-2.970;2023-06-22T14:00:35;5.75;;;2.25;;
77136;SDS011;66102;48.542;-2.970;2023-06-22T14:03:01;6.95;;;3.13;;
77136;SDS011;66102;48.542;-2.970;2023-06-22T14:05:27;7.10;;;2.60;;
77136;SDS011;66102;48.542;-2.970;2023-06-22T14:07:53;5.45;;;2.50;;
77136;SDS011;66102;48.542;-2.970;2023-06-22T14:10:19;5.60;;;2.60;;
77136;SDS011;66102;48.542;-2.970;2023-06-22T14:12:45;6.57;;;2.70;;
77136;SDS011;66102;48.542;-2.970;2023-06-22T14:15:11;5.30;;;2.40;;
77136;SDS011;66102;48.542;-2.970;2023-06-22T14:17:37;7.45;;;3.10;;
77136;SDS011;66102;48.542;-2.970;2023-06-22T14:20:04;6.80;;;2.70;;
77136;SDS011;66102;48.542;-2.970;2023-06-22T14:22:30;6.07;;;2.65;;
77136;SDS011;66102;48.542;-2.970;2023-06-22T14:24:56;6.45;;;2.60;;
77136;SDS011;66102;48.542;-2.970;2023-06-22T14:27:23;6.63;;;2.75;;
77136;SDS011;66102;48.542;-2.970;2023-06-22T14:29:49;6.05;;;2.53;;